Time;durP1;ratioP1;P1;durP2;ratioP2;P2;SDS_P1;SDS_P2;PMS_P1;PMS_P2;Temp;Humidity;BMP_temperature;BMP_pressure;BME280_temperature;BME280_humidity;BME280_pressure;Samples;Min_cycle;Max_cycle;Signal;HPM_P1;HPM_P2
2021/04/29 00:01:15;;;;;;;18.75;10.32;;;;;;;13.61;65.75;99421.69;5032857;28;20029;-37
2021/04/29 00:03:41;;;;;;;17.90;10.13;;;;;;;13.76;66.30;99436.44;5032626;28;20029;-37
2021/04/29 00:06:06;;;;;;;19.52;9.98;;;;;;;13.86;65.76;99442.06;5032611;28;20099;-37
2021/04/29 00:08:32;;;;;;;19.90;10.10;;;;;;;14.05;65.19;99446.22;5032444;28;20434;-37
2021/04/29 00:10:58;;;;;;;14.55;9.05;;;;;;;14.02;65.35;99444.00;5032627;28;20021;-38
2021/04/29 00:13:23;;;;;;;16.55;9.70;;;;;;;13.90;65.84;99437.88;5032742;28;20043;-38
2021/04/29 00:15:48;;;;;;;18.95;10.75;;;;;;;14.06;65.35;99441.69;5033538;28;20040;-38
2021/04/29 00:18:15;;;;;;;17.92;10.68;;;;;;;14.25;64.28;99445.03;5033294;28;20037;-38
2021/04/29 00:20:40;;;;;;;15.95;10.20;;;;;;;13.78;65.31;99445.84;5033208;28;20052;-38
2021/04/29 00:23:06;;;;;;;19.02;10.65;;;;;;;14.00;65.39;99446.09;5033369;28;20033;-38
2021/04/29 00:25:31;;;;;;;20.77;11.35;;;;;;;13.79;65.54;99441.34;5032969;28;20029;-38
2021/04/29 00:27:57;;;;;;;23.15;11.30;;;;;;;13.70;66.56;99427.50;5033312;28;20029;-38
2021/04/29 00:30:22;;;;;;;17.60;10.65;;;;;;;13.64;66.70;99437.25;5033096;28;20025;-38
2021/04/29 00:32:47;;;;;;;19.75;10.95;;;;;;;13.80;66.46;99445.63;5033162;28;20029;-38
2021/04/29 00:35:13;;;;;;;16.92;10.80;;;;;;;14.05;65.86;99454.25;5032782;28;20637;-38
2021/04/29 00:37:39;;;;;;;14.88;9.60;;;;;;;14.26;64.58;99452.03;5032727;28;20401;-38
2021/04/29 00:40:05;;;;;;;16.42;10.93;;;;;;;14.23;64.63;99460.53;5032759;28;20029;-38
2021/04/29 00:42:30;;;;;;;20.58;10.85;;;;;;;13.87;65.98;99452.50;5031532;28;20024;-38
2021/04/29 00:44:56;;;;;;;19.52;11.35;;;;;;;13.62;66.74;99452.72;5032941;28;20018;-38
2021/04/29 00:47:21;;;;;;;20.52;10.57;;;;;;;13.48;67.11;99449.44;5032854;28;20031;-38
2021/04/29 00:49:47;;;;;;;20.77;11.80;;;;;;;13.91;65.71;99458.19;5032614;28;20461;-38
2021/04/29 00:52:12;;;;;;;19.42;12.10;;;;;;;13.75;66.20;99459.72;5032625;28;20014;-38
2021/04/29 00:54:38;;;;;;;20.30;11.75;;;;;;;14.12;64.96;99467.50;5032587;28;20025;-38
2021/04/29 00:57:03;;;;;;;20.75;11.32;;;;;;;14.34;64.11;99465.06;5032229;28;20013;-38
2021/04/29 00:59:29;;;;;;;21.13;12.07;;;;;;;14.55;63.67;99457.47;5032491;28;20112;-38
2021/04/29 01:01:57;;;;;;;20.05;11.35;;;;;;;14.48;64.30;99458.38;5014528;28;20422;-38
2021/04/29 01:04:37;;;;;;;18.33;11.25;;;;;;;14.60;63.89;99460.25;5030772;28;20099;-38
2021/04/29 01:07:08;;;;;;;18.75;11.35;;;;;;;14.63;63.58;99457.13;5031040;28;20021;-38
2021/04/29 01:09:54;;;;;;;19.88;10.43;;;;;;;14.67;63.38;99442.19;5032385;28;20472;-38
2021/04/29 01:12:25;;;;;;;17.80;10.05;;;;;;;14.30;64.32;99441.66;5030746;28;20045;-39
2021/04/29 01:14:51;;;;;;;21.33;10.82;;;;;;;14.32;64.33;99440.38;5031003;28;20026;-39
2021/04/29 01:17:17;;;;;;;14.90;9.75;;;;;;;14.38;64.25;99434.09;5032283;28;20515;-37
2021/04/29 01:19:44;;;;;;;15.63;10.45;;;;;;;14.43;63.92;99438.72;5031925;28;20155;-37
2021/04/29 01:22:09;;;;;;;17.30;9.30;;;;;;;14.53;63.60;99444.31;5030596;28;20179;-38
2021/04/29 01:24:56;;;;;;;14.60;9.70;;;;;;;14.30;64.47;99455.88;5030789;28;20490;-38
2021/04/29 01:27:21;;;;;;;13.10;9.30;;;;;;;14.46;63.66;99454.31;5031802;28;20033;-38
2021/04/29 01:29:47;;;;;;;16.00;9.82;;;;;;;14.44;63.54;99438.50;5014224;28;20029;-38
2021/04/29 01:32:12;;;;;;;16.30;9.70;;;;;;;14.68;62.95;99457.22;5013978;28;20048;-38
2021/04/29 01:34:39;;;;;;;17.35;9.60;;;;;;;14.62;63.02;99447.44;5014139;28;20068;-38
2021/04/29 01:37:04;;;;;;;16.33;9.52;;;;;;;14.61;62.95;99452.00;5031888;28;20048;-38
2021/04/29 01:39:30;;;;;;;17.77;9.77;;;;;;;14.43;63.55;99449.44;5030853;28;20444;-38
2021/04/29 01:41:57;;;;;;;14.70;9.35;;;;;;;14.33;63.73;99452.72;5031486;28;20551;-38
2021/04/29 01:44:23;;;;;;;16.75;10.00;;;;;;;14.47;63.59;99451.41;5013906;28;20029;-38
2021/04/29 01:46:49;;;;;;;18.20;9.85;;;;;;;14.57;63.00;99450.84;5013811;28;20048;-38
2021/04/29 01:49:14;;;;;;;16.88;9.95;;;;;;;14.81;61.98;99443.56;5013553;28;20056;-38
2021/04/29 01:51:40;;;;;;;19.90;9.90;;;;;;;14.70;62.77;99446.25;5031484;28;20025;-38
2021/04/29 01:54:07;;;;;;;17.40;10.65;;;;;;;14.71;62.47;99447.91;5030144;28;20103;-39
2021/04/29 01:56:33;;;;;;;17.02;9.98;;;;;;;14.69;62.93;99447.31;5031716;28;20048;-38
2021/04/29 01:58:58;;;;;;;17.13;9.63;;;;;;;14.66;62.65;99446.75;5030203;28;20057;-38
2021/04/29 02:01:25;;;;;;;16.13;9.75;;;;;;;14.82;62.30;99447.03;5029910;28;20052;-38
2021/04/29 02:03:51;;;;;;;19.55;8.95;;;;;;;14.86;62.25;99448.19;5031078;28;20477;-38
2021/04/29 02:06:16;;;;;;;16.00;9.52;;;;;;;14.96;61.67;99447.56;5031153;28;20036;-38
2021/04/29 02:08:42;;;;;;;21.27;9.43;;;;;;;14.96;61.42;99452.94;5031149;28;20021;-38
2021/04/29 02:11:08;;;;;;;16.83;9.80;;;;;;;14.83;61.77;99452.16;5030922;28;20049;-38
2021/04/29 02:13:34;;;;;;;16.00;9.35;;;;;;;14.77;62.11;99450.41;5031114;28;20440;-37
2021/04/29 02:16:06;;;;;;;16.73;9.25;;;;;;;14.75;61.96;99446.34;5012901;28;20036;-38
2021/04/29 02:18:31;;;;;;;18.98;9.60;;;;;;;14.88;62.29;99453.31;5013406;28;20027;-38
2021/04/29 02:20:57;;;;;;;16.88;9.10;;;;;;;14.92;62.22;99451.78;5029546;28;20022;-38
2021/04/29 02:23:23;;;;;;;15.05;9.57;;;;;;;14.88;62.11;99446.09;5030694;28;20026;-38
2021/04/29 02:25:52;;;;;;;17.33;9.18;;;;;;;14.93;61.66;99453.41;5030626;28;20036;-38
2021/04/29 02:28:17;;;;;;;17.08;9.18;;;;;;;14.93;61.97;99450.75;5030686;28;20033;-39
2021/04/29 02:30:43;;;;;;;14.23;8.77;;;;;;;14.71;62.28;99454.06;5030826;28;20037;-39
2021/04/29 02:33:09;;;;;;;13.90;7.57;;;;;;;14.83;61.35;99454.84;5013257;28;20079;-38
2021/04/29 02:35:34;;;;;;;19.63;9.55;;;;;;;14.52;62.36;99456.06;5012947;28;20033;-38
2021/04/29 02:38:00;;;;;;;15.18;9.32;;;;;;;14.39;62.37;99459.81;5012957;28;20078;-38
2021/04/29 02:40:25;;;;;;;15.30;9.88;;;;;;;13.93;63.63;99457.97;5029146;28;20017;-38
2021/04/29 02:42:51;;;;;;;15.32;9.27;;;;;;;13.80;63.93;99449.16;5030561;28;20048;-38
2021/04/29 02:45:17;;;;;;;16.48;9.52;;;;;;;13.53;64.64;99455.94;5013053;28;20099;-38
2021/04/29 02:47:49;;;;;;;17.25;9.15;;;;;;;13.59;64.05;99458.50;5030495;28;20021;-38
2021/04/29 02:50:22;;;;;;;16.38;9.80;;;;;;;13.66;63.89;99451.19;5030485;28;20420;-37
2021/04/29 02:52:52;;;;;;;15.32;8.43;;;;;;;13.82;64.12;99465.78;5030641;28;20033;-38
2021/04/29 02:55:18;;;;;;;16.10;9.63;;;;;;;13.73;64.46;99461.81;5030567;28;20053;-38
2021/04/29 02:57:43;;;;;;;14.32;9.32;;;;;;;13.39;65.19;99463.38;5030775;28;20041;-38
2021/04/29 03:00:13;;;;;;;16.80;9.48;;;;;;;13.46;65.83;99472.06;5030455;28;20044;-37
2021/04/29 03:02:39;;;;;;;19.52;9.45;;;;;;;13.77;64.51;99468.31;5030237;28;20108;-37
2021/04/29 03:05:09;;;;;;;14.60;8.52;;;;;;;13.76;64.14;99473.88;5028884;28;20608;-38
2021/04/29 03:07:36;;;;;;;15.73;8.88;;;;;;;13.67;64.10;99476.91;5030067;28;20025;-39
2021/04/29 03:10:01;;;;;;;14.45;8.88;;;;;;;13.94;63.50;99476.47;5012628;28;20128;-38
2021/04/29 03:12:26;;;;;;;15.93;8.88;;;;;;;13.72;63.38;99478.88;5029961;28;20064;-39
2021/04/29 03:14:52;;;;;;;17.58;9.38;;;;;;;13.82;63.61;99483.66;5030070;28;20025;-37
2021/04/29 03:17:17;;;;;;;23.02;11.88;;;;;;;13.62;63.80;99486.66;5032116;28;20385;-37
2021/04/29 03:19:43;;;;;;;13.80;8.68;;;;;;;13.87;62.91;99489.13;5033528;28;20029;-38
2021/04/29 03:22:08;;;;;;;17.63;8.98;;;;;;;13.84;62.93;99494.94;5033519;28;20091;-37
2021/04/29 03:24:34;;;;;;;13.82;8.00;;;;;;;13.67;63.81;99502.84;5034365;28;20338;-37
2021/04/29 03:26:59;;;;;;;14.50;8.63;;;;;;;13.72;63.31;99507.50;5033847;28;20026;-38
2021/04/29 03:29:25;;;;;;;17.42;8.70;;;;;;;14.00;62.23;99507.63;5033823;28;20033;-38
2021/04/29 03:31:50;;;;;;;12.35;8.85;;;;;;;13.82;62.50;99511.25;5033900;28;20032;-38
2021/04/29 03:34:15;;;;;;;14.48;9.23;;;;;;;14.05;62.53;99515.78;5034113;28;20030;-38
2021/04/29 03:36:41;;;;;;;15.23;9.60;;;;;;;13.71;63.47;99519.22;5034199;28;20040;-39
2021/04/29 03:39:06;;;;;;;18.50;10.40;;;;;;;13.92;62.50;99515.19;5034095;28;20029;-38
2021/04/29 03:41:32;;;;;;;15.38;9.80;;;;;;;14.07;62.02;99521.72;5033846;28;20026;-38
2021/04/29 03:43:57;;;;;;;12.27;8.52;;;;;;;13.82;62.98;99508.56;5034034;28;20087;-38
2021/04/29 03:46:23;;;;;;;12.93;8.60;;;;;;;13.89;62.46;99511.91;5033703;28;20061;-37
2021/04/29 03:48:48;;;;;;;14.07;8.95;;;;;;;14.05;62.03;99512.28;5033712;28;20032;-38
2021/04/29 03:51:14;;;;;;;14.15;8.55;;;;;;;14.05;62.26;99517.63;5033547;28;20026;-38
2021/04/29 03:53:39;;;;;;;14.85;8.55;;;;;;;14.20;63.96;99515.34;5033683;28;20128;-38
2021/04/29 03:56:05;;;;;;;18.75;8.77;;;;;;;14.52;65.94;99522.19;5033599;28;20098;-38
2021/04/29 03:58:30;;;;;;;13.38;7.82;;;;;;;14.94;64.71;99522.00;5032865;28;20477;-38
2021/04/29 04:00:56;;;;;;;17.05;7.78;;;;;;;15.37;61.34;99520.69;5032991;28;20025;-39
2021/04/29 04:03:21;;;;;;;13.52;8.25;;;;;;;15.57;60.50;99523.75;5032543;28;20593;-39
2021/04/29 04:05:47;;;;;;;17.55;8.93;;;;;;;15.50;57.81;99516.88;5032608;28;20150;-39
2021/04/29 04:08:12;;;;;;;14.20;8.45;;;;;;;15.09;58.91;99511.59;5032402;28;20029;-38
2021/04/29 04:10:37;;;;;;;16.30;9.10;;;;;;;14.78;60.06;99524.38;5032031;28;20044;-49
2021/04/29 04:13:03;;;;;;;19.52;8.85;;;;;;;14.27;61.51;99523.25;5030926;28;20777;-50
2021/04/29 04:15:28;;;;;;;21.48;9.60;;;;;;;14.24;61.71;99531.72;5031018;28;20032;-49
2021/04/29 04:17:54;;;;;;;15.48;9.57;;;;;;;14.41;60.98;99534.50;5030948;28;20057;-49
2021/04/29 04:20:20;;;;;;;17.13;9.57;;;;;;;14.45;60.71;99538.38;5030713;28;20032;-49
2021/04/29 04:22:45;;;;;;;19.33;9.60;;;;;;;14.18;61.53;99538.00;5029654;28;20029;-51
2021/04/29 04:25:11;;;;;;;16.70;9.50;;;;;;;13.92;62.64;99528.56;5031336;28;20650;-52
2021/04/29 04:27:37;;;;;;;19.73;10.10;;;;;;;13.82;63.04;99539.81;5031521;28;20109;-55
2021/04/29 04:30:04;;;;;;;12.90;9.05;;;;;;;14.01;62.02;99543.22;5031514;28;20056;-50
2021/04/29 04:32:29;;;;;;;19.90;9.57;;;;;;;13.74;62.79;99540.16;5031236;28;20033;-53
2021/04/29 04:34:55;;;;;;;19.60;9.52;;;;;;;13.80;62.87;99548.09;5031739;28;20032;-54
2021/04/29 04:37:20;;;;;;;15.48;9.32;;;;;;;13.66;63.42;99542.09;5031376;28;20040;-54
2021/04/29 04:39:46;;;;;;;32.83;18.92;;;;;;;13.66;62.98;99539.44;5031247;28;20029;-55
2021/04/29 04:42:11;;;;;;;18.27;9.90;;;;;;;13.81;62.94;99546.22;5030732;28;20025;-50
2021/04/29 04:44:37;;;;;;;17.08;9.68;;;;;;;14.15;62.76;99549.19;5030599;28;20465;-51
2021/04/29 04:47:03;;;;;;;19.95;10.30;;;;;;;14.79;60.24;99550.13;5030202;28;20025;-51
2021/04/29 04:49:28;;;;;;;16.08;9.15;;;;;;;14.79;60.17;99555.50;5030320;28;20505;-49
2021/04/29 04:51:53;;;;;;;21.05;10.27;;;;;;;14.76;60.14;99569.34;5021512;28;20036;-51
2021/04/29 04:54:21;;;;;;;15.95;9.25;;;;;;;14.81;60.04;99560.59;5010437;28;20164;-38
2021/04/29 04:56:46;;;;;;;21.30;9.65;;;;;;;14.93;59.11;99564.06;5023803;28;20032;-38
2021/04/29 04:59:13;;;;;;;19.77;10.02;;;;;;;14.50;60.44;99561.75;5024586;28;20025;-38
2021/04/29 05:01:38;;;;;;;53.03;31.50;;;;;;;14.70;59.70;99567.59;5021042;28;20064;-39
2021/04/29 05:04:04;;;;;;;53.35;28.67;;;;;;;14.66;60.05;99566.44;5011732;28;20105;-39
2021/04/29 05:06:29;;;;;;;19.55;10.57;;;;;;;14.91;60.08;99568.03;5027472;28;20678;-38
2021/04/29 05:08:55;;;;;;;20.70;10.93;;;;;;;15.10;58.59;99572.19;5019639;28;20358;-38
2021/04/29 05:11:20;;;;;;;36.28;21.38;;;;;;;15.24;58.46;99570.03;4992858;28;702984;-38
2021/04/29 05:13:46;;;;;;;21.85;13.68;;;;;;;15.49;58.30;99569.72;5012082;28;20037;-39
2021/04/29 05:16:11;;;;;;;20.00;11.23;;;;;;;15.50;57.55;99562.47;5012030;28;20018;-38
2021/04/29 05:18:37;;;;;;;19.73;10.65;;;;;;;15.69;57.76;99571.13;5011366;28;20026;-38
2021/04/29 05:21:02;;;;;;;16.15;10.10;;;;;;;15.71;57.49;99569.84;5011010;28;20517;-39
2021/04/29 05:23:28;;;;;;;16.27;10.95;;;;;;;15.85;56.74;99562.34;5011796;28;20129;-39
2021/04/29 05:25:53;;;;;;;22.77;10.52;;;;;;;15.62;58.52;99573.97;5011468;28;20038;-38
2021/04/29 05:28:19;;;;;;;23.58;11.13;;;;;;;15.73;58.33;99575.81;5011270;28;20021;-38
2021/04/29 05:30:44;;;;;;;16.92;10.48;;;;;;;16.38;56.33;99571.78;5011364;28;20017;-39
2021/04/29 05:33:09;;;;;;;17.48;10.85;;;;;;;16.90;54.89;99573.31;5030651;28;20033;-39
2021/04/29 05:35:35;;;;;;;20.77;11.65;;;;;;;17.23;54.03;99576.13;5030416;28;20122;-40
2021/04/29 05:38:00;;;;;;;27.88;10.77;;;;;;;16.90;54.35;99584.06;5030663;28;20501;-38
2021/04/29 05:40:26;;;;;;;21.50;10.50;;;;;;;17.10;54.18;99583.53;5030294;28;20025;-39
2021/04/29 05:42:51;;;;;;;21.15;12.02;;;;;;;17.40;53.08;99590.31;5030560;28;20405;-38
2021/04/29 05:45:17;;;;;;;21.95;11.70;;;;;;;17.60;52.54;99595.13;5029833;28;20060;-39
2021/04/29 05:47:42;;;;;;;16.92;10.68;;;;;;;17.63;52.44;99585.72;5030791;28;20029;-39
2021/04/29 05:50:08;;;;;;;21.80;11.13;;;;;;;17.66;53.33;99591.41;5030534;28;20025;-39
2021/04/29 05:52:34;;;;;;;20.67;11.00;;;;;;;17.73;52.92;99592.03;5030715;28;20052;-39
2021/04/29 05:54:59;;;;;;;19.88;10.77;;;;;;;18.32;51.48;99598.47;5030878;28;20026;-39
2021/04/29 05:57:25;;;;;;;17.77;10.60;;;;;;;17.15;54.12;99606.97;5030770;28;20025;-39
2021/04/29 05:59:50;;;;;;;23.15;10.63;;;;;;;17.52;53.97;99609.81;5030671;28;20056;-39
2021/04/29 06:02:16;;;;;;;19.08;9.75;;;;;;;17.66;53.94;99604.84;5030557;28;20092;-39
2021/04/29 06:04:41;;;;;;;18.80;10.63;;;;;;;18.34;51.62;99602.53;5030409;28;20071;-39
2021/04/29 06:07:10;;;;;;;24.38;11.13;;;;;;;17.30;54.28;99596.38;5030786;28;20083;-39
2021/04/29 06:09:35;;;;;;;19.33;10.63;;;;;;;16.72;56.07;99611.22;5029336;28;20085;-38
2021/04/29 06:12:01;;;;;;;18.52;10.52;;;;;;;17.10;55.54;99606.91;5030424;28;20038;-39
2021/04/29 06:14:27;;;;;;;15.88;10.43;;;;;;;17.56;53.94;99602.88;5030503;28;20025;-39
2021/04/29 06:16:52;;;;;;;15.93;11.07;;;;;;;17.87;53.37;99597.81;5030348;28;20116;-39
2021/04/29 06:19:18;;;;;;;20.27;11.82;;;;;;;18.26;52.43;99610.25;5030266;28;20079;-38
2021/04/29 06:21:44;;;;;;;20.45;13.02;;;;;;;18.10;52.42;99603.94;5030046;28;20512;-39
2021/04/29 06:24:10;;;;;;;20.50;13.10;;;;;;;18.29;52.03;99601.69;5030320;28;20017;-38
2021/04/29 06:26:35;;;;;;;21.88;13.75;;;;;;;18.58;50.97;99601.34;5030318;28;20021;-39
2021/04/29 06:29:01;;;;;;;22.70;13.95;;;;;;;18.82;50.29;99601.78;5029906;28;20507;-39
2021/04/29 06:31:26;;;;;;;24.75;13.88;;;;;;;18.87;50.28;99599.94;5029916;28;20030;-39
2021/04/29 06:33:52;;;;;;;29.27;15.35;;;;;;;19.21;49.23;99604.97;5028333;28;20025;-40
2021/04/29 06:36:17;;;;;;;24.23;14.73;;;;;;;19.28;49.37;99610.09;5029704;28;20032;-39
2021/04/29 06:38:43;;;;;;;30.60;16.05;;;;;;;19.66;48.95;99608.03;5029804;28;20029;-39
2021/04/29 06:41:08;;;;;;;30.42;15.45;;;;;;;19.34;50.18;99609.03;5029153;28;20028;-39
2021/04/29 06:43:34;;;;;;;32.40;16.45;;;;;;;19.42;49.82;99613.09;5029320;28;20075;-39
2021/04/29 06:45:59;;;;;;;26.83;16.25;;;;;;;19.36;49.79;99608.78;5029197;28;20374;-39
2021/04/29 06:48:24;;;;;;;27.83;17.15;;;;;;;19.06;50.84;99605.69;5029401;28;20105;-39
2021/04/29 06:50:50;;;;;;;31.58;17.20;;;;;;;20.01;48.77;99606.50;5029868;28;20374;-40
2021/04/29 06:53:16;;;;;;;24.92;15.88;;;;;;;21.31;46.12;99600.63;5030070;28;20029;-40
2021/04/29 06:55:41;;;;;;;25.02;17.00;;;;;;;21.98;43.65;99599.13;5028510;28;20028;-40
2021/04/29 06:58:07;;;;;;;26.70;16.85;;;;;;;22.08;43.07;99606.38;5029184;28;20394;-39
2021/04/29 07:00:33;;;;;;;29.13;16.52;;;;;;;21.63;44.56;99590.19;5029182;28;20017;-40
2021/04/29 07:02:59;;;;;;;31.65;18.27;;;;;;;21.32;44.75;99599.50;5029182;28;20029;-39
2021/04/29 07:05:25;;;;;;;30.23;18.50;;;;;;;21.14;46.12;99595.56;5029365;28;20052;-40
2021/04/29 07:07:51;;;;;;;26.92;17.90;;;;;;;21.60;44.71;99606.16;5028090;28;20022;-39
2021/04/29 07:10:17;;;;;;;27.38;18.20;;;;;;;21.63;44.85;99608.31;5028892;28;20425;-39
2021/04/29 07:12:42;;;;;;;32.92;18.20;;;;;;;20.87;47.25;99611.03;5028125;28;20120;-39
2021/04/29 07:15:08;;;;;;;31.60;18.92;;;;;;;21.46;45.43;99604.06;5029706;28;20021;-39
2021/04/29 07:17:34;;;;;;;33.00;22.23;;;;;;;20.89;47.24;99603.47;5029299;28;20036;-38
2021/04/29 07:19:59;;;;;;;30.52;17.45;;;;;;;21.61;45.40;99600.47;5028860;28;20606;-39
2021/04/29 07:22:25;;;;;;;29.55;18.83;;;;;;;21.75;44.99;99605.28;5027857;28;20115;-39
2021/04/29 07:24:50;;;;;;;28.88;18.40;;;;;;;21.79;44.48;99606.31;5028720;28;20037;-39
2021/04/29 07:27:16;;;;;;;32.40;18.08;;;;;;;21.43;45.52;99599.19;5029020;28;20025;-39
2021/04/29 07:29:41;;;;;;;27.70;17.17;;;;;;;22.05;44.33;99596.13;5027376;28;20029;-39
2021/04/29 07:32:06;;;;;;;28.15;17.02;;;;;;;21.94;44.63;99608.91;5028555;28;20044;-39
2021/04/29 07:34:32;;;;;;;33.00;18.90;;;;;;;22.28;43.47;99605.44;5029413;28;20114;-39
2021/04/29 07:36:58;;;;;;;27.60;17.67;;;;;;;22.82;43.41;99608.97;5029446;28;20021;-39
2021/04/29 07:39:24;;;;;;;27.90;18.20;;;;;;;23.14;42.87;99610.28;5029293;28;20033;-38
2021/04/29 07:41:49;;;;;;;27.60;16.92;;;;;;;22.98;42.64;99606.88;5029091;28;20025;-39
2021/04/29 07:44:16;;;;;;;27.48;17.60;;;;;;;22.59;42.86;99595.09;5029556;28;20026;-39
2021/04/29 07:46:41;;;;;;;27.20;16.45;;;;;;;22.10;45.17;99603.38;5029285;28;20075;-40
2021/04/29 07:49:07;;;;;;;26.83;18.35;;;;;;;22.91;42.45;99598.31;5028489;28;20108;-39
2021/04/29 07:51:32;;;;;;;31.40;21.08;;;;;;;23.21;42.42;99599.88;5029725;28;20080;-39
2021/04/29 07:53:58;;;;;;;31.92;19.23;;;;;;;23.47;42.64;99607.69;5029375;28;20481;-39
2021/04/29 07:56:24;;;;;;;33.22;19.40;;;;;;;24.07;41.08;99617.97;5028810;28;20087;-39
2021/04/29 07:58:49;;;;;;;34.97;21.38;;;;;;;24.17;40.23;99612.38;5029058;28;20025;-39
2021/04/29 08:01:14;;;;;;;33.17;20.05;;;;;;;24.16;40.04;99613.47;5028999;28;20040;-39
2021/04/29 08:03:40;;;;;;;36.80;21.27;;;;;;;23.96;40.42;99606.47;5031946;28;20033;-49
2021/04/29 08:06:05;;;;;;;33.63;20.77;;;;;;;24.06;40.53;99603.56;5032757;28;20168;-49
2021/04/29 08:08:31;;;;;;;35.65;20.52;;;;;;;22.64;44.74;99597.78;5032753;28;20025;-50
2021/04/29 08:10:56;;;;;;;35.20;20.67;;;;;;;23.10;43.04;99601.09;5032814;28;20014;-50
2021/04/29 08:13:22;;;;;;;32.85;20.55;;;;;;;23.53;41.52;99595.63;5032768;28;20128;-52
2021/04/29 08:15:47;;;;;;;33.33;19.83;;;;;;;23.76;41.24;99600.22;5032947;28;20401;-50
2021/04/29 08:18:12;;;;;;;31.83;20.13;;;;;;;23.32;42.26;99590.50;5032557;28;20033;-51
2021/04/29 08:20:38;;;;;;;32.00;19.23;;;;;;;23.54;42.72;99597.28;5032404;28;20042;-51
2021/04/29 08:23:04;;;;;;;33.47;19.00;;;;;;;24.01;41.73;99598.22;5032778;28;20070;-52
2021/04/29 08:25:30;;;;;;;29.40;18.40;;;;;;;24.73;39.49;99605.16;5033019;28;20055;-52
2021/04/29 08:27:55;;;;;;;26.58;17.48;;;;;;;24.87;38.93;99595.09;5032883;28;20017;-51
2021/04/29 08:30:27;;;;;;;26.23;16.88;;;;;;;25.15;38.29;99586.91;5032742;28;20499;-48
2021/04/29 08:32:53;;;;;;;27.67;17.92;;;;;;;24.25;40.64;99592.66;5032409;28;20519;-51
2021/04/29 08:35:20;;;;;;;26.30;17.40;;;;;;;23.22;42.55;99593.34;5032558;28;20521;-48
2021/04/29 08:37:45;;;;;;;29.83;18.40;;;;;;;23.12;42.76;99577.19;5032226;28;20021;-49
2021/04/29 08:40:11;;;;;;;30.13;17.80;;;;;;;23.76;41.52;99580.38;5032398;28;20052;-50
2021/04/29 08:42:36;;;;;;;30.27;17.92;;;;;;;23.45;42.28;99585.44;5031661;28;20024;-52
2021/04/29 08:45:04;;;;;;;27.10;17.05;;;;;;;24.04;41.24;99580.50;5031333;28;20033;-51
2021/04/29 08:47:29;;;;;;;28.80;18.02;;;;;;;24.36;40.59;99587.84;5029369;28;20032;-49
2021/04/29 08:49:55;;;;;;;26.60;17.05;;;;;;;24.89;39.46;99583.91;5030301;28;20022;-50
2021/04/29 08:52:20;;;;;;;28.25;18.67;;;;;;;25.12;39.85;99587.53;5012526;28;20060;-50
2021/04/29 08:54:47;;;;;;;24.75;16.70;;;;;;;25.09;38.91;99583.50;5030616;28;20025;-50
2021/04/29 08:57:13;;;;;;;26.77;17.25;;;;;;;25.24;39.10;99576.16;5031352;28;20017;-50
2021/04/29 08:59:39;;;;;;;24.65;17.55;;;;;;;25.20;39.53;99573.19;5031456;28;20028;-51
2021/04/29 09:02:04;;;;;;;25.23;17.20;;;;;;;24.88;39.50;99568.69;5031002;28;20472;-48
2021/04/29 09:04:40;;;;;;;25.38;16.20;;;;;;;24.38;40.49;99577.47;5031331;28;20057;-51
2021/04/29 09:07:13;;;;;;;22.23;15.73;;;;;;;22.96;42.94;99574.66;5031320;28;20036;-50
2021/04/29 09:09:45;;;;;;;23.15;15.40;;;;;;;23.36;42.46;99572.53;5031126;28;20458;-51
2021/04/29 09:12:10;;;;;;;23.92;15.18;;;;;;;23.83;41.78;99572.69;5031070;28;20046;-50
2021/04/29 09:14:37;;;;;;;22.20;15.52;;;;;;;24.33;40.81;99566.69;5030103;28;20023;-52
2021/04/29 09:17:03;;;;;;;20.98;14.95;;;;;;;24.84;39.66;99551.34;5031121;28;20091;-49
2021/04/29 09:19:30;;;;;;;22.55;14.32;;;;;;;24.58;40.21;99554.59;5029403;28;20025;-50
2021/04/29 09:21:56;;;;;;;21.10;14.15;;;;;;;24.89;39.49;99553.97;5029840;28;20053;-49
2021/04/29 09:24:31;;;;;;;20.23;13.23;;;;;;;25.96;37.98;99550.81;5030309;28;20104;-50
2021/04/29 09:27:09;;;;;;;18.50;13.32;;;;;;;25.93;37.08;99546.78;5030808;28;20497;-50
2021/04/29 09:29:35;;;;;;;18.80;13.63;;;;;;;26.25;37.44;99544.09;5031001;28;20083;-49
2021/04/29 09:32:00;;;;;;;23.15;14.27;;;;;;;24.93;38.99;99539.44;5031314;28;20045;-51
2021/04/29 09:34:37;;;;;;;17.50;12.90;;;;;;;25.45;37.82;99541.91;5031102;28;20025;-50
2021/04/29 09:37:02;;;;;;;21.35;12.75;;;;;;;25.44;39.14;99537.56;5030804;28;20104;-49
2021/04/29 09:39:32;;;;;;;21.02;14.20;;;;;;;24.84;39.96;99527.66;5030835;28;20032;-50
2021/04/29 09:41:58;;;;;;;18.98;14.00;;;;;;;24.46;40.38;99538.72;5030753;28;20481;-49
2021/04/29 09:44:23;;;;;;;23.20;13.95;;;;;;;24.69;40.66;99528.78;5030642;28;20029;-49
2021/04/29 09:47:00;;;;;;;17.42;13.18;;;;;;;25.02;40.25;99531.38;5030603;28;20426;-49
2021/04/29 09:49:31;;;;;;;20.33;14.05;;;;;;;25.22;39.35;99529.34;5030471;28;20026;-50
2021/04/29 09:52:00;;;;;;;19.48;12.35;;;;;;;24.26;41.22;99530.94;5030780;28;20500;-49
2021/04/29 09:54:26;;;;;;;;;;;;;;;24.34;41.18;99532.97;5030791;28;20021;-50
2021/04/29 09:57:00;;;;;;;19.73;12.57;;;;;;;24.76;40.50;99526.47;5030426;28;19909;-49
2021/04/29 09:59:26;;;;;;;16.65;12.30;;;;;;;25.23;39.05;99523.63;5029759;28;20025;-52
2021/04/29 10:01:55;;;;;;;17.05;12.77;;;;;;;25.05;39.82;99525.31;5030342;28;20091;-50
2021/04/29 10:04:24;;;;;;;17.52;11.98;;;;;;;24.78;40.84;99535.13;5030467;28;20091;-49
2021/04/29 10:06:50;;;;;;;25.80;13.73;;;;;;;25.16;40.29;99525.91;5030294;28;20051;-48
2021/04/29 10:09:16;;;;;;;19.92;12.25;;;;;;;25.72;39.90;99532.00;5030407;28;20382;-52
2021/04/29 10:11:43;;;;;;;19.55;12.48;;;;;;;24.97;40.52;99520.59;5029776;28;20136;-49
2021/04/29 10:14:10;;;;;;;18.73;12.30;;;;;;;24.72;40.91;99519.22;5028615;28;20028;-51
2021/04/29 10:16:35;;;;;;;17.80;12.05;;;;;;;24.67;40.24;99511.16;5028819;28;20075;-48
2021/04/29 10:19:00;;;;;;;16.83;10.15;;;;;;;24.55;40.11;99508.94;5012285;28;20037;-49
2021/04/29 10:21:26;;;;;;;15.82;10.23;;;;;;;24.19;40.88;99507.66;5028340;28;20021;-48
2021/04/29 10:23:51;;;;;;;16.50;10.35;;;;;;;25.10;40.21;99514.31;5028522;28;20031;-52
2021/04/29 10:26:46;;;;;;;18.20;10.65;;;;;;;23.99;42.72;99506.13;5028378;28;20073;-51
2021/04/29 10:29:13;;;;;;;17.35;11.07;;;;;;;24.51;41.98;99497.84;5029229;28;20044;-51
2021/04/29 10:31:38;;;;;;;16.95;10.27;;;;;;;25.01;42.13;99493.59;5030141;28;20026;-51
2021/04/29 10:34:24;;;;;;;14.65;9.68;;;;;;;25.08;39.99;99488.53;5011480;28;20037;-50
2021/04/29 10:36:51;;;;;;;15.18;10.00;;;;;;;24.11;41.93;99492.06;5029217;28;20103;-52
2021/04/29 10:39:21;;;;;;;16.08;10.02;;;;;;;24.51;41.92;99491.59;5029777;28;20026;-52
2021/04/29 10:41:48;;;;;;;17.25;9.02;;;;;;;23.50;43.82;99490.34;5027840;28;20013;-49
2021/04/29 10:44:15;;;;;;;10.75;8.27;;;;;;;23.99;42.45;99489.81;5028842;28;20051;-50
2021/04/29 10:46:41;;;;;;;12.50;8.27;;;;;;;23.67;43.35;99495.25;5029319;28;20032;-51
2021/04/29 10:49:07;;;;;;;14.20;8.35;;;;;;;24.00;42.43;99494.13;5029264;28;20021;-50
2021/04/29 10:51:36;;;;;;;15.90;8.23;;;;;;;24.34;41.86;99487.53;5029364;28;20474;-51
2021/04/29 10:54:15;;;;;;;11.15;7.63;;;;;;;25.19;40.31;99489.91;5026787;28;20021;-49
2021/04/29 10:56:41;;;;;;;17.27;9.18;;;;;;;24.50;41.91;99484.53;5029684;28;20455;-50
2021/04/29 10:59:13;;;;;;;11.23;8.27;;;;;;;25.21;40.27;99478.69;5029591;28;20477;-50
2021/04/29 11:01:40;;;;;;;12.38;8.07;;;;;;;24.98;41.03;99481.41;5029575;28;20446;-51
2021/04/29 11:04:16;;;;;;;12.05;8.73;;;;;;;24.57;42.15;99474.09;5029936;28;20026;-48
2021/04/29 11:06:41;;;;;;;13.80;8.80;;;;;;;24.57;41.86;99474.09;5029063;28;20509;-48
2021/04/29 11:09:18;;;;;;;13.57;8.35;;;;;;;24.30;43.04;99472.16;5027577;28;20151;-50
2021/04/29 11:11:43;;;;;;;13.55;8.70;;;;;;;24.99;41.76;99461.22;5028603;28;20120;-51
2021/04/29 11:14:15;;;;;;;14.60;8.85;;;;;;;25.16;41.35;99464.09;5028967;28;20025;-52
2021/04/29 11:16:54;;;;;;;14.23;8.50;;;;;;;25.05;42.35;99460.00;5028572;28;20025;-54